createdAt,value
2022-08-30T00:00:03.627Z,98313.00
2022-08-30T00:03:01.121Z,98311.73
2022-08-30T00:05:56.436Z,98309.67
2022-08-30T00:08:31.664Z,98305.30
2022-08-30T00:11:00.006Z,98303.17
2022-08-30T00:13:34.065Z,98302.11
2022-08-30T00:16:06.048Z,98303.23
2022-08-30T00:18:40.295Z,98301.34
2022-08-30T00:21:17.992Z,98302.72
2022-08-30T00:23:49.767Z,98302.70
2022-08-30T00:26:22.846Z,98300.81
2022-08-30T00:28:56.646Z,98301.38
2022-08-30T00:31:24.779Z,98300.85
2022-08-30T00:34:00.369Z,98304.63
2022-08-30T00:36:33.389Z,98305.16
2022-08-30T00:39:19.273Z,98305.83
2022-08-30T00:41:53.707Z,98309.35
2022-08-30T00:44:26.402Z,98312.52
2022-08-30T00:46:59.759Z,98309.31
2022-08-30T00:49:29.303Z,98313.27
2022-08-30T00:51:59.248Z,98310.12
2022-08-30T00:54:33.942Z,98310.88
2022-08-30T00:57:08.755Z,98310.88
2022-08-30T00:59:51.416Z,98313.45
2022-08-30T01:02:39.104Z,98317.41
2022-08-30T01:05:10.875Z,98317.41
2022-08-30T01:08:13.523Z,98312.23
2022-08-30T01:10:49.085Z,98311.35
2022-08-30T01:13:19.710Z,98311.35
2022-08-30T01:16:02.761Z,98313.44
2022-08-30T01:18:40.694Z,98314.53
2022-08-30T01:21:33.692Z,98316.05
2022-08-30T01:24:08.843Z,98312.64
2022-08-30T01:26:41.825Z,98309.45
2022-08-30T01:29:17.874Z,98309.25
2022-08-30T01:32:01.556Z,98305.29
2022-08-30T01:34:36.467Z,98307.05
2022-08-30T01:37:09.467Z,98306.67
2022-08-30T01:39:43.041Z,98305.05
2022-08-30T01:42:14.570Z,98303.88
2022-08-30T01:44:49.205Z,98301.84
2022-08-30T01:47:21.520Z,98298.66
2022-08-30T01:49:52.674Z,98301.12
2022-08-30T01:52:28.198Z,98301.08
2022-08-30T01:54:59.034Z,98303.98
2022-08-30T01:57:33.587Z,98300.36
2022-08-30T02:00:17.978Z,98296.85
2022-08-30T02:02:51.745Z,98295.30
2022-08-30T02:05:31.588Z,98296.00
2022-08-30T02:08:20.269Z,98297.89
2022-08-30T02:10:52.350Z,98298.13
2022-08-30T02:13:21.556Z,98299.21
2022-08-30T02:16:03.109Z,98299.33
2022-08-30T02:18:38.202Z,98300.48
2022-08-30T02:21:11.660Z,98298.52
2022-08-30T02:23:46.589Z,98303.15
2022-08-30T02:26:16.934Z,98307.13
2022-08-30T02:28:52.905Z,98307.95
2022-08-30T02:31:27.750Z,98305.79
2022-08-30T02:34:06.207Z,98311.05
2022-08-30T02:36:34.744Z,98306.77
2022-08-30T02:39:10.866Z,98307.37
2022-08-30T02:41:45.538Z,98308.34
2022-08-30T02:44:19.246Z,98304.16
2022-08-30T02:46:53.412Z,98299.13
2022-08-30T02:49:35.341Z,98297.32
2022-08-30T02:52:09.969Z,98301.88
2022-08-30T02:54:39.128Z,98305.62
2022-08-30T02:57:15.211Z,98307.04
2022-08-30T02:59:55.874Z,98308.30
2022-08-30T03:02:30.893Z,98313.36
2022-08-30T03:05:02.701Z,98315.53
2022-08-30T03:07:34.337Z,98315.02
2022-08-30T03:10:07.254Z,98313.83
2022-08-30T03:12:42.351Z,98315.94
2022-08-30T03:15:16.478Z,98314.81
2022-08-30T03:17:45.693Z,98319.54
2022-08-30T03:20:14.197Z,98322.36
2022-08-30T03:22:43.234Z,98321.98
2022-08-30T03:25:20.953Z,98326.96
2022-08-30T03:27:54.122Z,98327.08
2022-08-30T03:30:31.207Z,98332.26
2022-08-30T03:33:05.645Z,98335.09
2022-08-30T03:35:42.005Z,98336.77
2022-08-30T03:38:11.112Z,98340.29
2022-08-30T03:40:49.070Z,98338.79
2022-08-30T03:43:21.533Z,98339.80
2022-08-30T03:46:07.973Z,98342.63
2022-08-30T03:48:38.053Z,98346.69
2022-08-30T03:51:12.862Z,98349.62
2022-08-30T03:53:48.345Z,98347.57
2022-08-30T03:56:21.955Z,98352.60
2022-08-30T03:59:03.040Z,98350.80
2022-08-30T04:01:42.246Z,98355.23
2022-08-30T04:04:20.744Z,98359.39
2022-08-30T04:06:51.332Z,98360.80
2022-08-30T04:09:28.889Z,98366.11
2022-08-30T04:12:00.849Z,98368.23
2022-08-30T04:14:43.199Z,98375.17
2022-08-30T04:17:14.997Z,98376.10
2022-08-30T04:19:43.966Z,98374.34
2022-08-30T04:22:19.392Z,98379.21
2022-08-30T04:24:57.840Z,98386.32
2022-08-30T04:27:30.809Z,98389.34
2022-08-30T04:30:17.524Z,98392.30
2022-08-30T04:32:46.182Z,98396.13
2022-08-30T04:35:24.133Z,98403.64
2022-08-30T04:38:13.330Z,98414.90
2022-08-30T04:40:55.632Z,98417.73
2022-08-30T04:43:28.392Z,98413.08
2022-08-30T04:46:00.395Z,98417.17
2022-08-30T04:48:35.987Z,98416.40
2022-08-30T04:51:18.346Z,98416.96
2022-08-30T04:53:55.434Z,98419.00
2022-08-30T04:56:35.182Z,98419.46
2022-08-30T04:59:10.616Z,98415.14
2022-08-30T05:01:45.307Z,98417.85
2022-08-30T05:04:27.566Z,98424.78
2022-08-30T05:07:02.649Z,98425.27
2022-08-30T05:09:37.864Z,98430.91
2022-08-30T05:12:09.658Z,98430.63
2022-08-30T05:14:45.407Z,98431.76
2022-08-30T05:17:28.180Z,98436.58
2022-08-30T05:20:14.994Z,98435.48
2022-08-30T05:22:54.269Z,98441.61
2022-08-30T05:25:32.052Z,98443.94
2022-08-30T05:28:01.250Z,98445.23
2022-08-30T05:30:34.703Z,98444.40
2022-08-30T05:33:13.615Z,98445.77
2022-08-30T05:35:58.801Z,98451.23
2022-08-30T05:38:33.682Z,98449.36
2022-08-30T05:41:10.925Z,98455.34
2022-08-30T05:43:55.290Z,98455.15
2022-08-30T05:49:04.670Z,98454.14
2022-08-30T05:51:42.857Z,98454.67
2022-08-30T05:54:13.875Z,98454.23
2022-08-30T05:56:46.950Z,98460.08
2022-08-30T05:59:23.486Z,98467.42
2022-08-30T06:01:52.649Z,98467.25
2022-08-30T06:04:28.544Z,98466.17
2022-08-30T06:07:09.508Z,98463.91
2022-08-30T06:09:41.053Z,98464.05
2022-08-30T06:12:23.584Z,98467.77
2022-08-30T06:15:03.394Z,98471.70
2022-08-30T06:17:39.543Z,98473.58
2022-08-30T06:20:13.743Z,98477.84
2022-08-30T06:22:48.257Z,98481.06
2022-08-30T06:25:23.702Z,98491.17
2022-08-30T06:28:00.704Z,98491.10
2022-08-30T06:30:32.169Z,98488.73
2022-08-30T06:33:01.678Z,98494.42
2022-08-30T06:35:56.752Z,98501.05
2022-08-30T06:38:31.388Z,98501.41
2022-08-30T06:41:02.945Z,98508.25
2022-08-30T06:43:37.362Z,98515.34
2022-08-30T06:46:14.956Z,98518.89
2022-08-30T06:48:48.164Z,98531.15
2022-08-30T06:51:27.024Z,98531.20
2022-08-30T06:54:01.649Z,98532.50
2022-08-30T06:56:36.214Z,98531.34
2022-08-30T06:59:10.341Z,98525.60
2022-08-30T07:01:38.592Z,98524.73
2022-08-30T07:04:11.527Z,98522.52
2022-08-30T07:06:45.880Z,98531.60
2022-08-30T07:09:23.139Z,98530.25
2022-08-30T07:12:06.853Z,98526.46
2022-08-30T07:14:48.912Z,98529.08
2022-08-30T07:17:40.792Z,98535.85
2022-08-30T07:20:20.087Z,98543.23
2022-08-30T07:22:57.085Z,98538.48
2022-08-30T07:25:30.707Z,98542.34
2022-08-30T07:28:16.318Z,98550.45
2022-08-30T07:30:54.775Z,98556.42
2022-08-30T07:33:28.098Z,98557.14
2022-08-30T07:36:05.886Z,98563.42
2022-08-30T07:38:38.272Z,98569.63
2022-08-30T07:41:13.618Z,98566.38
2022-08-30T07:43:45.722Z,98566.23
2022-08-30T07:46:38.244Z,98567.32
2022-08-30T07:49:13.220Z,98566.59
2022-08-30T07:51:48.472Z,98566.18
2022-08-30T07:54:21.373Z,98567.59
2022-08-30T07:57:08.226Z,98567.25
2022-08-30T07:59:47.150Z,98569.13
2022-08-30T08:02:18.480Z,98576.92
2022-08-30T08:04:49.931Z,98578.25
2022-08-30T08:07:25.034Z,98577.64
2022-08-30T08:10:03.354Z,98577.77
2022-08-30T08:12:37.463Z,98572.66
2022-08-30T08:15:08.753Z,98575.31
2022-08-30T08:17:37.299Z,98574.70
2022-08-30T08:20:33.036Z,98576.31
2022-08-30T08:23:39.810Z,98579.89
2022-08-30T08:26:11.172Z,98582.39
2022-08-30T08:28:48.639Z,98582.44
2022-08-30T08:31:34.051Z,98579.77
2022-08-30T08:34:07.996Z,98581.91
2022-08-30T08:36:43.677Z,98585.77
2022-08-30T08:39:32.599Z,98579.94
2022-08-30T08:42:12.649Z,98581.93
2022-08-30T08:44:58.825Z,98583.52
2022-08-30T08:47:43.319Z,98581.13
2022-08-30T08:50:25.802Z,98578.60
2022-08-30T08:53:48.380Z,98579.62
2022-08-30T08:56:23.300Z,98582.23
2022-08-30T08:58:53.927Z,98585.27
2022-08-30T09:01:23.984Z,98581.74
2022-08-30T09:03:58.153Z,98580.48
2022-08-30T09:06:45.061Z,98577.49
2022-08-30T09:09:31.909Z,98577.05
2022-08-30T09:12:19.698Z,98578.41
2022-08-30T09:14:56.913Z,98578.91
2022-08-30T09:17:33.372Z,98581.30
2022-08-30T09:20:09.296Z,98586.10
2022-08-30T09:22:46.600Z,98586.77
2022-08-30T09:25:38.702Z,98584.51
2022-08-30T09:28:43.808Z,98585.15
2022-08-30T09:31:32.233Z,98585.48
2022-08-30T09:34:39.062Z,98583.76
2022-08-30T09:37:34.085Z,98580.73
2022-08-30T09:40:25.217Z,98580.21
2022-08-30T09:43:05.800Z,98578.54
2022-08-30T09:45:49.689Z,98571.23
2022-08-30T09:49:10.030Z,98569.45
2022-08-30T09:52:20.839Z,98564.61
2022-08-30T09:54:56.007Z,98560.04
2022-08-30T09:57:41.869Z,98558.50
2022-08-30T10:00:19.876Z,98555.70
2022-08-30T10:03:09.145Z,98549.06
2022-08-30T10:06:03.998Z,98544.58
2022-08-30T10:08:41.784Z,98542.45
2022-08-30T10:11:33.936Z,98539.37
2022-08-30T10:14:22.249Z,98536.86
2022-08-30T10:17:16.365Z,98526.52
2022-08-30T10:20:09.801Z,98521.69
2022-08-30T10:22:42.819Z,98523.46
2022-08-30T10:25:29.604Z,98519.92
2022-08-30T10:28:11.473Z,98517.06
2022-08-30T10:30:44.343Z,98513.48
2022-08-30T10:33:25.896Z,98509.84
2022-08-30T10:35:58.871Z,98505.89
2022-08-30T10:38:33.078Z,98502.77
2022-08-30T10:41:15.656Z,98499.09
2022-08-30T10:44:01.705Z,98495.98
2022-08-30T10:46:45.364Z,98492.33
2022-08-30T10:49:26.206Z,98489.54
2022-08-30T10:52:15.799Z,98486.40
2022-08-30T10:54:57.570Z,98486.99
2022-08-30T10:57:30.040Z,98486.98
2022-08-30T11:00:05.830Z,98482.24
2022-08-30T11:02:55.892Z,98478.60
2022-08-30T11:05:30.803Z,98472.08
2022-08-30T11:08:23.057Z,98469.08
2022-08-30T11:11:15.792Z,98470.88
2022-08-30T11:13:54.673Z,98465.54
2022-08-30T11:16:48.810Z,98462.43
2022-08-30T11:19:39.442Z,98460.59
2022-08-30T11:22:19.942Z,98457.88
2022-08-30T11:25:00.142Z,98454.45
2022-08-30T11:27:52.085Z,98453.19
2022-08-30T11:30:34.111Z,98450.56
2022-08-30T11:33:40.326Z,98449.84
2022-08-30T11:36:38.199Z,98443.15
2022-08-30T11:39:46.128Z,98439.57
2022-08-30T11:42:29.624Z,98431.83
2022-08-30T11:45:38.327Z,98429.29
2022-08-30T11:48:53.671Z,98421.41
2022-08-30T11:51:43.861Z,98417.41
2022-08-30T11:54:35.582Z,98408.64
2022-08-30T11:57:17.942Z,98402.60
2022-08-30T12:00:07.173Z,98395.20
2022-08-30T12:03:14.635Z,98389.38
2022-08-30T12:05:51.718Z,98382.77
2022-08-30T12:08:56.454Z,98380.44
2022-08-30T12:11:42.934Z,98376.63
2022-08-30T12:14:41.064Z,98371.42
2022-08-30T12:17:52.250Z,98370.38
2022-08-30T12:20:30.232Z,98361.62
2022-08-30T12:23:17.019Z,98360.33
2022-08-30T12:25:53.140Z,98356.83
2022-08-30T12:28:28.735Z,98353.49
2022-08-30T12:31:11.943Z,98347.66
2022-08-30T12:33:50.768Z,98344.28
2022-08-30T12:36:46.159Z,98339.48
2022-08-30T12:39:43.635Z,98337.59
2022-08-30T12:42:18.440Z,98332.09
2022-08-30T12:44:53.133Z,98330.31
2022-08-30T12:47:50.916Z,98323.23
2022-08-30T12:50:27.809Z,98321.95
2022-08-30T12:53:10.423Z,98318.92
2022-08-30T12:56:11.770Z,98316.29
2022-08-30T12:58:56.576Z,98311.95
2022-08-30T13:01:40.050Z,98310.79
2022-08-30T13:04:43.456Z,98306.05
2022-08-30T13:07:35.305Z,98298.39
2022-08-30T13:14:07.713Z,98286.19
2022-08-30T13:17:24.942Z,98281.30
2022-08-30T13:20:30.040Z,98278.28
2022-08-30T13:23:28.828Z,98275.32
2022-08-30T13:26:02.419Z,98273.85
2022-08-30T13:29:00.553Z,98272.02
2022-08-30T13:32:00.259Z,98273.26
2022-08-30T13:34:36.213Z,98272.83
2022-08-30T13:37:51.568Z,98271.02
2022-08-30T13:40:52.797Z,98272.89
2022-08-30T13:43:29.391Z,98275.33
2022-08-30T13:46:37.324Z,98271.21
2022-08-30T13:49:53.707Z,98270.87
2022-08-30T13:52:47.359Z,98271.34
2022-08-30T13:55:35.210Z,98269.73
2022-08-30T14:04:46.141Z,98263.17
2022-08-30T14:07:21.085Z,98262.08
2022-08-30T14:13:13.598Z,98264.98
2022-08-30T14:18:58.511Z,98268.74
2022-08-30T14:21:28.975Z,98265.41
2022-08-30T14:24:07.759Z,98261.52
2022-08-30T14:26:52.820Z,98258.61
2022-08-30T14:29:32.651Z,98252.27
2022-08-30T14:32:13.371Z,98249.30
2022-08-30T14:34:52.269Z,98245.05
2022-08-30T14:37:29.274Z,98245.19
2022-08-30T14:40:12.733Z,98244.80
2022-08-30T14:42:54.681Z,98243.69
2022-08-30T14:45:49.956Z,98249.58
2022-08-30T14:48:41.515Z,98253.58
2022-08-30T14:51:19.356Z,98256.79
2022-08-30T14:53:56.599Z,98255.18
2022-08-30T14:56:47.529Z,98257.36
2022-08-30T14:59:20.971Z,98254.07
2022-08-30T15:01:56.684Z,98254.86
2022-08-30T15:04:30.157Z,98255.73
2022-08-30T15:07:00.720Z,98253.65
2022-08-30T15:09:28.993Z,98254.45
2022-08-30T15:12:07.516Z,98249.52
2022-08-30T15:14:36.624Z,98247.70
2022-08-30T15:17:12.570Z,98241.57
2022-08-30T15:19:40.776Z,98236.32
2022-08-30T15:22:33.512Z,98234.68
2022-08-30T15:25:12.877Z,98228.17
2022-08-30T15:27:42.183Z,98226.14
2022-08-30T15:30:21.681Z,98224.93
2022-08-30T15:32:58.604Z,98226.97
2022-08-30T15:36:25.424Z,98225.62
2022-08-30T15:39:05.849Z,98221.46
2022-08-30T15:41:46.493Z,98221.43
2022-08-30T15:44:32.052Z,98222.17
2022-08-30T15:47:09.481Z,98219.81
2022-08-30T15:49:55.838Z,98216.14
2022-08-30T15:52:30.567Z,98212.39
2022-08-30T15:55:06.693Z,98207.70
2022-08-30T15:57:45.692Z,98211.35
2022-08-30T16:00:26.021Z,98209.93
2022-08-30T16:03:04.936Z,98211.77
2022-08-30T16:05:40.951Z,98205.72
2022-08-30T16:08:19.399Z,98199.25
2022-08-30T16:11:04.190Z,98200.35
2022-08-30T16:13:38.203Z,98198.02
2022-08-30T16:16:30.154Z,98197.03
2022-08-30T16:19:08.279Z,98195.56
2022-08-30T16:21:45.435Z,98196.42
2022-08-30T16:24:22.829Z,98196.95
2022-08-30T16:27:05.276Z,98197.30
2022-08-30T16:29:50.034Z,98197.83
2022-08-30T16:32:19.595Z,98199.35
2022-08-30T16:34:47.758Z,98205.50
2022-08-30T16:37:23.714Z,98208.79
2022-08-30T16:39:56.811Z,98216.41
2022-08-30T16:42:27.719Z,98214.23
2022-08-30T16:45:07.481Z,98218.50
2022-08-30T16:47:40.444Z,98221.27
2022-08-30T16:50:12.216Z,98223.05
2022-08-30T16:52:44.383Z,98229.38
2022-08-30T16:55:23.940Z,98230.73
2022-08-30T16:58:00.881Z,98236.64
2022-08-30T17:00:30.356Z,98238.47
2022-08-30T17:03:06.321Z,98243.08
2022-08-30T17:05:50.016Z,98243.59
2022-08-30T17:08:19.400Z,98247.62
2022-08-30T17:10:54.451Z,98249.66
2022-08-30T17:13:29.501Z,98256.85
2022-08-30T17:16:07.826Z,98259.41
2022-08-30T17:18:44.087Z,98261.36
2022-08-30T17:21:12.960Z,98263.85
2022-08-30T17:23:47.846Z,98267.31
2022-08-30T17:26:18.594Z,98274.81
2022-08-30T17:28:47.882Z,98275.30
2022-08-30T17:31:18.846Z,98281.55
2022-08-30T17:33:53.861Z,98285.42
2022-08-30T17:36:35.564Z,98290.45
2022-08-30T17:39:16.148Z,98292.13
2022-08-30T17:41:55.130Z,98298.70
2022-08-30T17:44:32.889Z,98305.96
2022-08-30T17:47:09.539Z,98310.19
2022-08-30T17:49:46.565Z,98314.18
2022-08-30T17:52:20.777Z,98319.22
2022-08-30T17:54:56.203Z,98324.73
2022-08-30T17:57:29.621Z,98328.14
2022-08-30T18:00:01.242Z,98325.87
2022-08-30T18:02:34.920Z,98328.13
2022-08-30T18:05:05.100Z,98331.54
2022-08-30T18:07:48.235Z,98334.72
2022-08-30T18:10:26.727Z,98338.92
2022-08-30T18:13:12.779Z,98337.63
2022-08-30T18:15:45.149Z,98342.38
2022-08-30T18:18:22.475Z,98348.87
2022-08-30T18:21:00.562Z,98348.23
2022-08-30T18:23:34.068Z,98351.74
2022-08-30T18:26:08.696Z,98351.73
2022-08-30T18:28:45.785Z,98352.67
2022-08-30T18:31:25.611Z,98361.98
2022-08-30T18:34:00.511Z,98371.98
2022-08-30T18:36:32.744Z,98379.88
2022-08-30T18:39:05.796Z,98376.57
2022-08-30T18:41:38.119Z,98375.93
2022-08-30T18:44:27.131Z,98373.55
2022-08-30T18:47:03.827Z,98369.17
2022-08-30T18:49:47.656Z,98368.73
2022-08-30T18:52:40.173Z,98373.07
2022-08-30T18:55:17.750Z,98372.75
2022-08-30T18:57:50.665Z,98364.50
2022-08-30T19:00:24.808Z,98360.23
2022-08-30T19:02:57.012Z,98353.13
2022-08-30T19:05:33.168Z,98348.71
2022-08-30T19:08:14.833Z,98348.63
2022-08-30T19:10:47.332Z,98352.66
2022-08-30T19:13:23.197Z,98356.81
2022-08-30T19:16:04.754Z,98361.84
2022-08-30T19:18:40.145Z,98360.04
2022-08-30T19:21:48.492Z,98357.64
2022-08-30T19:24:29.057Z,98354.25
2022-08-30T19:27:14.513Z,98368.70
2022-08-30T19:29:57.082Z,98361.39
2022-08-30T19:32:25.222Z,98353.27
2022-08-30T19:35:02.680Z,98351.02
2022-08-30T19:37:40.899Z,98351.02
2022-08-30T19:40:15.558Z,98350.83
2022-08-30T19:42:50.816Z,98348.01
2022-08-30T19:45:26.914Z,98344.46
2022-08-30T19:48:02.109Z,98342.27
2022-08-30T19:50:36.375Z,98343.04
2022-08-30T19:53:09.032Z,98342.80
2022-08-30T19:55:44.127Z,98341.85
2022-08-30T19:58:23.969Z,98339.56
2022-08-30T20:00:54.382Z,98340.23
2022-08-30T20:03:33.563Z,98342.24
2022-08-30T20:06:10.376Z,98344.52
2022-08-30T20:08:42.951Z,98348.55
2022-08-30T20:11:26.726Z,98345.80
2022-08-30T20:13:59.990Z,98345.71
2022-08-30T20:16:41.656Z,98341.86
2022-08-30T20:19:27.396Z,98336.15
2022-08-30T20:22:07.638Z,98340.08
2022-08-30T20:24:44.626Z,98343.94
2022-08-30T20:27:26.875Z,98344.08
2022-08-30T20:29:57.439Z,98343.77
2022-08-30T20:32:26.627Z,98346.27
2022-08-30T20:35:00.564Z,98346.91
2022-08-30T20:37:33.787Z,98348.05
2022-08-30T20:40:13.446Z,98353.81
2022-08-30T20:42:46.765Z,98356.73
2022-08-30T20:45:18.705Z,98360.30
2022-08-30T20:47:47.814Z,98364.94
2022-08-30T20:50:30.891Z,98366.00
2022-08-30T20:53:11.023Z,98377.62
2022-08-30T20:55:47.231Z,98375.95
2022-08-30T20:58:20.862Z,98383.73
2022-08-30T21:00:56.467Z,98395.29
2022-08-30T21:03:25.910Z,98394.87
2022-08-30T21:05:56.126Z,98393.38
2022-08-30T21:08:27.965Z,98396.50
2022-08-30T21:11:04.574Z,98395.27
2022-08-30T21:13:40.663Z,98399.27
2022-08-30T21:16:16.684Z,98402.70
2022-08-30T21:19:03.035Z,98403.61
2022-08-30T21:21:34.887Z,98403.30
2022-08-30T21:24:18.384Z,98408.33
2022-08-30T21:26:55.816Z,98404.23
2022-08-30T21:29:29.313Z,98406.98
2022-08-30T21:31:59.488Z,98407.41
2022-08-30T21:34:34.830Z,98408.14
2022-08-30T21:37:19.283Z,98402.45
2022-08-30T21:39:59.995Z,98406.98
2022-08-30T21:42:34.977Z,98404.13
2022-08-30T21:45:10.513Z,98400.23
2022-08-30T21:47:40.058Z,98404.66
2022-08-30T21:50:12.229Z,98405.56
2022-08-30T21:52:40.712Z,98402.69
2022-08-30T21:55:16.539Z,98408.73
2022-08-30T21:57:48.233Z,98415.45
2022-08-30T22:00:21.233Z,98415.71
2022-08-30T22:02:57.673Z,98406.95
2022-08-30T22:05:29.152Z,98403.66
2022-08-30T22:08:02.135Z,98401.09
2022-08-30T22:10:43.306Z,98402.90
2022-08-30T22:13:19.833Z,98402.27
2022-08-30T22:15:52.139Z,98401.38
2022-08-30T22:18:32.210Z,98396.09
2022-08-30T22:21:24.038Z,98390.46
2022-08-30T22:23:56.913Z,98386.87
2022-08-30T22:26:29.830Z,98383.62
2022-08-30T22:29:04.925Z,98378.35
2022-08-30T22:31:33.186Z,98375.73
2022-08-30T22:34:07.709Z,98371.18
2022-08-30T22:36:42.814Z,98372.23
2022-08-30T22:39:13.537Z,98377.99
2022-08-30T22:41:48.497Z,98377.48
2022-08-30T22:44:23.561Z,98372.11
2022-08-30T22:46:57.870Z,98369.54
2022-08-30T22:49:29.548Z,98368.33
2022-08-30T22:52:04.121Z,98371.58
2022-08-30T22:54:45.335Z,98375.73
2022-08-30T22:57:18.007Z,98377.55
2022-08-30T22:59:55.353Z,98376.77
2022-08-30T23:02:24.003Z,98380.10
2022-08-30T23:04:58.498Z,98379.24
2022-08-30T23:07:33.199Z,98374.27
2022-08-30T23:10:05.305Z,98377.38
2022-08-30T23:12:38.915Z,98382.08
2022-08-30T23:15:13.789Z,98384.18
2022-08-30T23:17:48.796Z,98380.47
2022-08-30T23:20:28.130Z,98377.77
2022-08-30T23:23:05.081Z,98373.57
2022-08-30T23:25:52.325Z,98372.41
2022-08-30T23:28:41.161Z,98371.45
2022-08-30T23:31:29.847Z,98370.34
2022-08-30T23:34:21.248Z,98368.39
2022-08-30T23:37:08.727Z,98367.58
2022-08-30T23:39:56.343Z,98365.20
2022-08-30T23:42:47.169Z,98365.02
2022-08-30T23:45:33.705Z,98367.23
2022-08-30T23:48:20.145Z,98359.98
2022-08-30T23:51:12.364Z,98356.78
2022-08-30T23:54:31.767Z,98358.30
2022-08-30T23:57:23.725Z,98362.75
